sensor_id;sensor_type;location;lat;lon;timestamp;pressure;altitude;pressure_sealevel;temperature;humidity
59055;BME280;44845;51.444;7.460;2023-04-30T00:01:58;100414.22;;;8.43;73.54
59055;BME280;44845;51.444;7.460;2023-04-30T00:04:23;100421.19;;;8.44;73.17
59055;BME280;44845;51.444;7.460;2023-04-30T00:06:49;100421.97;;;8.37;73.85
59055;BME280;44845;51.444;7.460;2023-04-30T00:09:14;100415.00;;;8.34;74.00
59055;BME280;44845;51.444;7.460;2023-04-30T00:11:40;100413.16;;;8.27;73.79
59055;BME280;44845;51.444;7.460;2023-04-30T00:14:05;100421.84;;;8.22;74.11
59055;BME280;44845;51.444;7.460;2023-04-30T00:16:30;100416.72;;;8.33;73.47
59055;BME280;44845;51.444;7.460;2023-04-30T00:18:56;100412.31;;;8.29;73.65
59055;BME280;44845;51.444;7.460;2023-04-30T00:21:21;100420.38;;;8.50;72.81
59055;BME280;44845;51.444;7.460;2023-04-30T00:23:46;100415.00;;;8.34;73.16
59055;BME280;44845;51.444;7.460;2023-04-30T00:26:12;100424.59;;;8.37;73.27
59055;BME280;44845;51.444;7.460;2023-04-30T00:28:37;100422.69;;;8.20;73.47
59055;BME280;44845;51.444;7.460;2023-04-30T00:31:03;100419.19;;;8.18;73.68
59055;BME280;44845;51.444;7.460;2023-04-30T00:33:31;100418.41;;;8.27;73.20
59055;BME280;44845;51.444;7.460;2023-04-30T00:35:56;100425.31;;;8.21;73.35
59055;BME280;44845;51.444;7.460;2023-04-30T00:38:21;100427.03;;;8.19;73.44
59055;BME280;44845;51.444;7.460;2023-04-30T00:40:48;100433.19;;;8.23;73.09
59055;BME280;44845;51.444;7.460;2023-04-30T00:43:13;100426.94;;;8.10;73.47
59055;BME280;44845;51.444;7.460;2023-04-30T00:45:38;100421.66;;;8.07;73.67
59055;BME280;44845;51.444;7.460;2023-04-30T00:48:04;100426.00;;;8.03;74.00
59055;BME280;44845;51.444;7.460;2023-04-30T00:50:30;100426.72;;;7.94;74.23
59055;BME280;44845;51.444;7.460;2023-04-30T00:52:55;100428.28;;;7.76;74.74
59055;BME280;44845;51.444;7.460;2023-04-30T00:55:21;100425.78;;;7.86;74.20
59055;BME280;44845;51.444;7.460;2023-04-30T00:57:47;100432.78;;;7.92;73.77
59055;BME280;44845;51.444;7.460;2023-04-30T01:00:13;100429.28;;;7.88;73.79
59055;BME280;44845;51.444;7.460;2023-04-30T01:02:39;100426.56;;;7.82;73.78
59055;BME280;44845;51.444;7.460;2023-04-30T01:05:05;100426.44;;;7.71;73.94
59055;BME280;44845;51.444;7.460;2023-04-30T01:07:32;100433.56;;;7.83;73.60
59055;BME280;44845;51.444;7.460;2023-04-30T01:09:58;100428.19;;;7.72;74.11
59055;BME280;44845;51.444;7.460;2023-04-30T01:20:16;100428.13;;;7.64;74.17
59055;BME280;44845;51.444;7.460;2023-04-30T01:22:55;100421.06;;;7.57;74.35
59055;BME280;44845;51.444;7.460;2023-04-30T01:28:15;100422.78;;;7.54;74.96
59055;BME280;44845;51.444;7.460;2023-04-30T01:30:41;100418.47;;;7.60;74.57
59055;BME280;44845;51.444;7.460;2023-04-30T01:33:09;100426.28;;;7.60;74.36
59055;BME280;44845;51.444;7.460;2023-04-30T01:36:28;100422.66;;;7.48;75.05
59055;BME280;44845;51.444;7.460;2023-04-30T01:41:40;100425.22;;;7.43;75.69
59055;BME280;44845;51.444;7.460;2023-04-30T01:47:00;100426.09;;;7.44;75.06
59055;BME280;44845;51.444;7.460;2023-04-30T01:49:56;100425.34;;;7.51;75.11
59055;BME280;44845;51.444;7.460;2023-04-30T01:52:22;100428.84;;;7.55;74.78
59055;BME280;44845;51.444;7.460;2023-04-30T01:54:56;100420.00;;;7.43;75.15
59055;BME280;44845;51.444;7.460;2023-04-30T01:57:31;100426.09;;;7.44;75.01
59055;BME280;44845;51.444;7.460;2023-04-30T01:59:57;100427.81;;;7.42;75.05
59055;BME280;44845;51.444;7.460;2023-04-30T02:02:22;100429.47;;;7.37;75.11
59055;BME280;44845;51.444;7.460;2023-04-30T02:04:48;100430.56;;;7.53;74.33
59055;BME280;44845;51.444;7.460;2023-04-30T02:07:23;100422.63;;;7.45;74.47
59055;BME280;44845;51.444;7.460;2023-04-30T02:09:53;100431.31;;;7.44;74.80
59055;BME280;44845;51.444;7.460;2023-04-30T02:12:19;100427.81;;;7.43;74.60
59055;BME280;44845;51.444;7.460;2023-04-30T02:14:44;100426.00;;;7.38;74.63
59055;BME280;44845;51.444;7.460;2023-04-30T02:17:09;100428.59;;;7.36;74.76
59055;BME280;44845;51.444;7.460;2023-04-30T02:19:35;100426.69;;;7.26;75.14
59055;BME280;44845;51.444;7.460;2023-04-30T02:22:00;100428.47;;;7.28;74.89
59055;BME280;44845;51.444;7.460;2023-04-30T02:24:25;100435.25;;;7.17;75.33
59055;BME280;44845;51.444;7.460;2023-04-30T02:26:51;100439.53;;;7.12;75.46
59055;BME280;44845;51.444;7.460;2023-04-30T02:29:16;100439.78;;;7.27;74.46
59055;BME280;44845;51.444;7.460;2023-04-30T02:31:41;100438.09;;;7.32;74.30
59055;BME280;44845;51.444;7.460;2023-04-30T02:34:07;100439.91;;;7.37;74.00
59055;BME280;44845;51.444;7.460;2023-04-30T02:36:32;100438.06;;;7.31;74.08
59055;BME280;44845;51.444;7.460;2023-04-30T02:39:00;100443.22;;;7.26;74.15
59055;BME280;44845;51.444;7.460;2023-04-30T02:41:26;100448.53;;;7.32;73.75
59055;BME280;44845;51.444;7.460;2023-04-30T02:43:51;100435.38;;;7.25;74.03
59055;BME280;44845;51.444;7.460;2023-04-30T02:46:17;100437.59;;;6.98;75.20
59055;BME280;44845;51.444;7.460;2023-04-30T02:48:43;100444.47;;;6.96;75.10
59055;BME280;44845;51.444;7.460;2023-04-30T02:51:08;100450.69;;;7.03;74.92
59055;BME280;44845;51.444;7.460;2023-04-30T02:53:34;100441.84;;;6.94;74.98
59055;BME280;44845;51.444;7.460;2023-04-30T02:55:59;100442.88;;;7.03;74.72
59055;BME280;44845;51.444;7.460;2023-04-30T02:58:25;100439.28;;;6.96;75.14
59055;BME280;44845;51.444;7.460;2023-04-30T03:00:50;100441.09;;;7.00;75.11
59055;BME280;44845;51.444;7.460;2023-04-30T03:03:16;100443.78;;;7.05;74.94
59055;BME280;44845;51.444;7.460;2023-04-30T03:05:41;100439.59;;;7.15;74.45
59055;BME280;44845;51.444;7.460;2023-04-30T03:08:06;100452.38;;;7.01;74.70
59055;BME280;44845;51.444;7.460;2023-04-30T03:10:32;100441.09;;;7.00;74.54
59055;BME280;44845;51.444;7.460;2023-04-30T03:12:57;100442.94;;;7.07;74.23
59055;BME280;44845;51.444;7.460;2023-04-30T03:15:22;100438.31;;;6.91;74.89
59055;BME280;44845;51.444;7.460;2023-04-30T03:17:48;100440.06;;;6.90;74.91
59055;BME280;44845;51.444;7.460;2023-04-30T03:20:13;100434.66;;;6.79;75.30
59055;BME280;44845;51.444;7.460;2023-04-30T03:22:38;100439.03;;;6.80;75.27
59055;BME280;44845;51.444;7.460;2023-04-30T03:25:04;100438.16;;;6.80;75.24
59055;BME280;44845;51.444;7.460;2023-04-30T03:27:29;100438.19;;;6.83;74.97
59055;BME280;44845;51.444;7.460;2023-04-30T03:29:55;100439.91;;;6.81;75.25
59055;BME280;44845;51.444;7.460;2023-04-30T03:32:20;100442.41;;;6.76;75.42
59055;BME280;44845;51.444;7.460;2023-04-30T03:34:46;100433.69;;;6.74;75.37
59055;BME280;44845;51.444;7.460;2023-04-30T03:37:11;100436.06;;;6.61;75.91
59055;BME280;44845;51.444;7.460;2023-04-30T03:39:36;100435.19;;;6.59;76.14
59055;BME280;44845;51.444;7.460;2023-04-30T03:42:02;100442.09;;;6.57;75.92
59055;BME280;44845;51.444;7.460;2023-04-30T03:44:27;100427.28;;;6.55;76.15
59055;BME280;44845;51.444;7.460;2023-04-30T03:46:52;100426.75;;;6.73;75.24
59055;BME280;44845;51.444;7.460;2023-04-30T03:49:18;100421.56;;;6.76;74.73
59055;BME280;44845;51.444;7.460;2023-04-30T03:51:43;100434.41;;;6.65;75.29
59055;BME280;44845;51.444;7.460;2023-04-30T03:54:09;100428.06;;;6.49;75.72
59055;BME280;44845;51.444;7.460;2023-04-30T03:56:35;100419.44;;;6.53;75.90
59055;BME280;44845;51.444;7.460;2023-04-30T03:59:01;100429.28;;;6.70;75.13
59055;BME280;44845;51.444;7.460;2023-04-30T04:01:28;100426.69;;;6.70;74.97
59055;BME280;44845;51.444;7.460;2023-04-30T04:03:53;100433.75;;;6.77;74.55
59055;BME280;44845;51.444;7.460;2023-04-30T04:06:19;100428.44;;;6.71;74.54
59055;BME280;44845;51.444;7.460;2023-04-30T04:08:44;100435.56;;;6.81;74.07
59055;BME280;44845;51.444;7.460;2023-04-30T04:11:10;100433.56;;;6.66;74.34
59055;BME280;44845;51.444;7.460;2023-04-30T04:13:36;100437.59;;;6.48;75.07
59055;BME280;44845;51.444;7.460;2023-04-30T04:16:01;100445.66;;;6.62;74.86
59055;BME280;44845;51.444;7.460;2023-04-30T04:18:27;100447.97;;;6.45;75.17
59055;BME280;44845;51.444;7.460;2023-04-30T04:20:53;100448.84;;;6.46;75.02
59055;BME280;44845;51.444;7.460;2023-04-30T04:23:18;100450.88;;;6.62;74.33
59055;BME280;44845;51.444;7.460;2023-04-30T04:25:43;100450.78;;;6.56;74.78
59055;BME280;44845;51.444;7.460;2023-04-30T04:28:10;100456.97;;;6.63;74.50
59055;BME280;44845;51.444;7.460;2023-04-30T04:30:36;100457.81;;;6.62;74.80
59055;BME280;44845;51.444;7.460;2023-04-30T04:33:02;100469.84;;;6.53;75.18
59055;BME280;44845;51.444;7.460;2023-04-30T04:35:27;100464.41;;;6.42;75.49
59055;BME280;44845;51.444;7.460;2023-04-30T04:37:52;100466.13;;;6.42;75.96
59055;BME280;44845;51.444;7.460;2023-04-30T04:40:18;100456.06;;;6.61;75.63
59055;BME280;44845;51.444;7.460;2023-04-30T04:42:43;100462.72;;;6.45;76.08
59055;BME280;44845;51.444;7.460;2023-04-30T04:45:09;100463.75;;;6.53;76.17
59055;BME280;44845;51.444;7.460;2023-04-30T04:47:35;100456.81;;;6.53;76.39
59055;BME280;44845;51.444;7.460;2023-04-30T04:50:01;100452.41;;;6.51;76.70
59055;BME280;44845;51.444;7.460;2023-04-30T04:52:26;100450.91;;;6.64;76.76
59055;BME280;44845;51.444;7.460;2023-04-30T04:54:51;100450.88;;;6.62;77.10
59055;BME280;44845;51.444;7.460;2023-04-30T04:57:17;100457.91;;;6.67;77.07
59055;BME280;44845;51.444;7.460;2023-04-30T04:59:42;100458.13;;;6.79;76.83
59055;BME280;44845;51.444;7.460;2023-04-30T05:02:08;100461.63;;;6.81;77.19
59055;BME280;44845;51.444;7.460;2023-04-30T05:04:33;100451.41;;;6.94;77.27
59055;BME280;44845;51.444;7.460;2023-04-30T05:06:58;100453.41;;;7.10;76.11
59055;BME280;44845;51.444;7.460;2023-04-30T05:09:24;100463.66;;;6.98;76.28
59055;BME280;44845;51.444;7.460;2023-04-30T05:11:49;100464.34;;;6.87;77.05
59055;BME280;44845;51.444;7.460;2023-04-30T05:14:15;100468.63;;;6.84;77.54
59055;BME280;44845;51.444;7.460;2023-04-30T05:16:40;100470.41;;;6.86;77.71
59055;BME280;44845;51.444;7.460;2023-04-30T05:19:05;100476.56;;;6.90;77.93
59055;BME280;44845;51.444;7.460;2023-04-30T05:21:33;100474.13;;;7.01;77.43
59055;BME280;44845;51.444;7.460;2023-04-30T05:23:59;100475.22;;;7.14;77.10
59055;BME280;44845;51.444;7.460;2023-04-30T05:26:25;100478.16;;;7.35;76.85
59055;BME280;44845;51.444;7.460;2023-04-30T05:28:50;100475.38;;;7.25;78.22
59055;BME280;44845;51.444;7.460;2023-04-30T05:31:16;100479.63;;;7.17;78.51
59055;BME280;44845;51.444;7.460;2023-04-30T05:33:42;100478.00;;;7.25;78.32
59055;BME280;44845;51.444;7.460;2023-04-30T05:36:07;100484.28;;;7.37;78.33
59055;BME280;44845;51.444;7.460;2023-04-30T05:38:32;100480.16;;;7.51;77.42
59055;BME280;44845;51.444;7.460;2023-04-30T05:40:59;100489.00;;;7.63;77.36
59055;BME280;44845;51.444;7.460;2023-04-30T05:43:24;100488.69;;;7.42;77.77
59055;BME280;44845;51.444;7.460;2023-04-30T05:45:49;100488.75;;;7.47;77.50
59055;BME280;44845;51.444;7.460;2023-04-30T05:48:15;100488.94;;;7.57;77.33
59055;BME280;44845;51.444;7.460;2023-04-30T05:50:40;100498.41;;;7.53;77.20
59055;BME280;44845;51.444;7.460;2023-04-30T05:53:05;100491.56;;;7.60;77.32
59055;BME280;44845;51.444;7.460;2023-04-30T05:55:31;100486.50;;;7.72;76.92
59055;BME280;44845;51.444;7.460;2023-04-30T05:57:56;100486.56;;;7.77;76.58
59055;BME280;44845;51.444;7.460;2023-04-30T06:00:22;100490.84;;;7.72;76.67
59055;BME280;44845;51.444;7.460;2023-04-30T06:02:47;100493.19;;;7.51;76.93
59055;BME280;44845;51.444;7.460;2023-04-30T06:05:12;100485.13;;;7.36;77.84
59055;BME280;44845;51.444;7.460;2023-04-30T06:07:38;100489.63;;;7.45;78.13
59055;BME280;44845;51.444;7.460;2023-04-30T06:10:03;100493.31;;;7.59;78.05
59055;BME280;44845;51.444;7.460;2023-04-30T06:12:29;100483.91;;;7.72;77.55
59055;BME280;44845;51.444;7.460;2023-04-30T06:14:55;100488.41;;;7.84;77.02
59055;BME280;44845;51.444;7.460;2023-04-30T06:17:20;100490.31;;;7.95;77.56
59055;BME280;44845;51.444;7.460;2023-04-30T06:19:46;100493.88;;;8.02;76.80
59055;BME280;44845;51.444;7.460;2023-04-30T06:22:11;100489.69;;;8.15;76.40
59055;BME280;44845;51.444;7.460;2023-04-30T06:24:36;100491.53;;;8.23;76.87
59055;BME280;44845;51.444;7.460;2023-04-30T06:27:02;100483.03;;;8.40;75.78
59055;BME280;44845;51.444;7.460;2023-04-30T06:29:27;100496.19;;;8.50;75.46
59055;BME280;44845;51.444;7.460;2023-04-30T06:31:52;100488.53;;;8.62;75.03
59055;BME280;44845;51.444;7.460;2023-04-30T06:34:18;100497.00;;;8.45;74.79
59055;BME280;44845;51.444;7.460;2023-04-30T06:36:45;100483.72;;;8.28;75.11
59055;BME280;44845;51.444;7.460;2023-04-30T06:39:13;100485.38;;;8.18;75.53
59055;BME280;44845;51.444;7.460;2023-04-30T06:41:39;100487.22;;;8.29;75.74
59055;BME280;44845;51.444;7.460;2023-04-30T06:44:04;100480.53;;;8.53;74.98
59055;BME280;44845;51.444;7.460;2023-04-30T06:46:29;100481.56;;;8.64;74.81
59055;BME280;44845;51.444;7.460;2023-04-30T06:48:55;100486.03;;;8.78;73.97
59055;BME280;44845;51.444;7.460;2023-04-30T06:51:20;100484.06;;;8.56;74.14
59055;BME280;44845;51.444;7.460;2023-04-30T06:53:45;100479.88;;;8.70;73.92
59055;BME280;44845;51.444;7.460;2023-04-30T06:56:11;100476.41;;;8.74;73.62
59055;BME280;44845;51.444;7.460;2023-04-30T06:58:37;100478.19;;;8.75;73.65
59055;BME280;44845;51.444;7.460;2023-04-30T07:01:02;100476.34;;;8.64;73.96
59055;BME280;44845;51.444;7.460;2023-04-30T07:03:28;100473.84;;;8.78;73.50
59055;BME280;44845;51.444;7.460;2023-04-30T07:05:53;100474.88;;;8.98;73.13
59055;BME280;44845;51.444;7.460;2023-04-30T07:08:20;100481.84;;;8.96;73.25
59055;BME280;44845;51.444;7.460;2023-04-30T07:10:45;100479.19;;;8.91;73.72
59055;BME280;44845;51.444;7.460;2023-04-30T07:13:10;100479.34;;;9.07;74.36
59055;BME280;44845;51.444;7.460;2023-04-30T07:15:36;100480.22;;;9.09;72.71
59055;BME280;44845;51.444;7.460;2023-04-30T07:18:02;100470.66;;;9.11;72.50
59055;BME280;44845;51.444;7.460;2023-04-30T07:20:28;100476.75;;;9.15;72.19
59055;BME280;44845;51.444;7.460;2023-04-30T07:22:54;100475.94;;;9.20;72.15
59055;BME280;44845;51.444;7.460;2023-04-30T07:25:19;100469.84;;;9.17;72.82
59055;BME280;44845;51.444;7.460;2023-04-30T07:27:45;100470.78;;;9.30;72.61
59055;BME280;44845;51.444;7.460;2023-04-30T07:30:11;100466.50;;;9.40;72.36
59055;BME280;44845;51.444;7.460;2023-04-30T07:32:36;100470.00;;;9.43;72.05
59055;BME280;44845;51.444;7.460;2023-04-30T07:35:03;100471.78;;;9.49;71.41
59055;BME280;44845;51.444;7.460;2023-04-30T07:37:28;100473.56;;;9.56;71.50
59055;BME280;44845;51.444;7.460;2023-04-30T07:39:53;100468.34;;;9.61;71.33
59055;BME280;44845;51.444;7.460;2023-04-30T07:42:19;100471.88;;;9.65;72.19
59055;BME280;44845;51.444;7.460;2023-04-30T07:44:44;100470.25;;;9.89;70.95
59055;BME280;44845;51.444;7.460;2023-04-30T07:47:10;100469.38;;;9.88;69.83
59055;BME280;44845;51.444;7.460;2023-04-30T07:49:35;100468.53;;;9.91;70.64
59055;BME280;44845;51.444;7.460;2023-04-30T07:52:01;100468.56;;;9.97;70.47
59055;BME280;44845;51.444;7.460;2023-04-30T07:54:26;100468.63;;;10.13;70.47
59055;BME280;44845;51.444;7.460;2023-04-30T07:56:52;100468.63;;;10.13;69.45
59055;BME280;44845;51.444;7.460;2023-04-30T07:59:17;100469.50;;;10.15;70.04
59055;BME280;44845;51.444;7.460;2023-04-30T08:01:43;100467.78;;;10.17;68.81
59055;BME280;44845;51.444;7.460;2023-04-30T08:04:08;100473.91;;;10.25;68.91
59055;BME280;44845;51.444;7.460;2023-04-30T08:06:34;100470.44;;;10.30;68.90
59055;BME280;44845;51.444;7.460;2023-04-30T08:08:59;100472.19;;;10.31;68.80
59055;BME280;44845;51.444;7.460;2023-04-30T08:11:25;100472.19;;;10.40;68.65
59055;BME280;44845;51.444;7.460;2023-04-30T08:13:51;100476.63;;;10.51;68.30
59055;BME280;44845;51.444;7.460;2023-04-30T08:16:16;100473.09;;;10.41;67.93
59055;BME280;44845;51.444;7.460;2023-04-30T08:18:41;100472.19;;;10.40;68.35
59055;BME280;44845;51.444;7.460;2023-04-30T08:21:12;100466.97;;;10.50;68.60
59055;BME280;44845;51.444;7.460;2023-04-30T08:23:37;100460.91;;;10.55;68.38
59055;BME280;44845;51.444;7.460;2023-04-30T08:26:03;100468.81;;;10.62;68.26
59055;BME280;44845;51.444;7.460;2023-04-30T08:28:28;100470.56;;;10.74;68.69
59055;BME280;44845;51.444;7.460;2023-04-30T08:30:54;100470.59;;;10.86;67.60
59055;BME280;44845;51.444;7.460;2023-04-30T08:33:19;100463.56;;;10.85;68.60
59055;BME280;44845;51.444;7.460;2023-04-30T08:35:44;100461.84;;;11.00;67.36
59055;BME280;44845;51.444;7.460;2023-04-30T08:38:10;100472.34;;;11.03;66.28
59055;BME280;44845;51.444;7.460;2023-04-30T08:40:36;100475.81;;;11.11;67.17
59055;BME280;44845;51.444;7.460;2023-04-30T08:43:08;100469.72;;;10.94;67.00
59055;BME280;44845;51.444;7.460;2023-04-30T08:45:34;100471.47;;;11.02;67.25
59055;BME280;44845;51.444;7.460;2023-04-30T08:48:01;100475.81;;;11.11;66.44
59055;BME280;44845;51.444;7.460;2023-04-30T08:50:29;100470.59;;;11.14;66.76
59055;BME280;44845;51.444;7.460;2023-04-30T08:52:54;100472.34;;;11.17;66.69
59055;BME280;44845;51.444;7.460;2023-04-30T08:55:20;100468.84;;;11.23;66.55
59055;BME280;44845;51.444;7.460;2023-04-30T08:57:45;100477.59;;;11.33;67.01
59055;BME280;44845;51.444;7.460;2023-04-30T09:00:11;100481.06;;;11.19;66.02
59055;BME280;44845;51.444;7.460;2023-04-30T09:02:39;100470.56;;;11.32;65.90
59055;BME280;44845;51.444;7.460;2023-04-30T09:05:10;100473.19;;;11.24;65.98
59055;BME280;44845;51.444;7.460;2023-04-30T09:07:39;100474.09;;;11.10;66.03
59055;BME280;44845;51.444;7.460;2023-04-30T09:10:13;100468.81;;;11.26;66.61
59055;BME280;44845;51.444;7.460;2023-04-30T09:12:40;100466.19;;;11.31;66.20
59055;BME280;44845;51.444;7.460;2023-04-30T09:15:08;100467.06;;;11.34;65.11
59055;BME280;44845;51.444;7.460;2023-04-30T09:17:34;100467.06;;;11.37;65.87
59055;BME280;44845;51.444;7.460;2023-04-30T09:20:06;100467.91;;;11.55;65.23
59055;BME280;44845;51.444;7.460;2023-04-30T09:22:35;100460.91;;;11.46;65.30
59055;BME280;44845;51.444;7.460;2023-04-30T09:25:01;100464.41;;;11.59;64.88
59055;BME280;44845;51.444;7.460;2023-04-30T09:27:26;100463.50;;;11.64;65.89
59055;BME280;44845;51.444;7.460;2023-04-30T09:29:51;100453.88;;;11.63;64.78
59055;BME280;44845;51.444;7.460;2023-04-30T09:32:17;100461.75;;;11.66;63.85
59055;BME280;44845;51.444;7.460;2023-04-30T09:34:43;100456.50;;;11.63;63.01
59055;BME280;44845;51.444;7.460;2023-04-30T09:37:09;100455.63;;;11.65;63.60
59055;BME280;44845;51.444;7.460;2023-04-30T09:39:46;100456.50;;;11.61;62.99
59055;BME280;44845;51.444;7.460;2023-04-30T09:42:12;100455.63;;;11.67;61.77
59055;BME280;44845;51.444;7.460;2023-04-30T09:44:40;100459.13;;;11.70;62.76
59055;BME280;44845;51.444;7.460;2023-04-30T09:47:13;100456.50;;;11.67;62.20
59055;BME280;44845;51.444;7.460;2023-04-30T09:49:43;100463.47;;;11.73;62.78
59055;BME280;44845;51.444;7.460;2023-04-30T09:52:11;100458.22;;;11.70;64.32
59055;BME280;44845;51.444;7.460;2023-04-30T09:54:39;100451.25;;;11.72;64.78
59055;BME280;44845;51.444;7.460;2023-04-30T09:57:09;100451.19;;;11.89;62.61
59055;BME280;44845;51.444;7.460;2023-04-30T09:59:35;100448.59;;;11.78;62.14
59055;BME280;44845;51.444;7.460;2023-04-30T10:02:07;100438.94;;;11.77;62.51
59055;BME280;44845;51.444;7.460;2023-04-30T10:04:37;100431.03;;;11.87;61.38
59055;BME280;44845;51.444;7.460;2023-04-30T10:07:07;100437.16;;;11.89;61.59
59055;BME280;44845;51.444;7.460;2023-04-30T10:09:40;100436.25;;;11.99;62.13
59055;BME280;44845;51.444;7.460;2023-04-30T10:12:15;100428.38;;;11.90;62.30
59055;BME280;44845;51.444;7.460;2023-04-30T10:14:50;100423.13;;;11.99;60.74
59055;BME280;44845;51.444;7.460;2023-04-30T10:17:16;100426.56;;;12.09;61.19
59055;BME280;44845;51.444;7.460;2023-04-30T10:19:45;100420.47;;;12.01;59.54
59055;BME280;44845;51.444;7.460;2023-04-30T10:22:12;100422.19;;;12.05;60.21
59055;BME280;44845;51.444;7.460;2023-04-30T10:24:38;100419.53;;;12.10;59.25
59055;BME280;44845;51.444;7.460;2023-04-30T10:27:04;100417.78;;;12.15;59.45
59055;BME280;44845;51.444;7.460;2023-04-30T10:29:29;100423.88;;;12.28;60.50
59055;BME280;44845;51.444;7.460;2023-04-30T10:31:55;100422.97;;;12.29;60.63
59055;BME280;44845;51.444;7.460;2023-04-30T10:37:04;100412.47;;;12.27;60.25
59055;BME280;44845;51.444;7.460;2023-04-30T10:39:32;100408.97;;;12.29;60.51
59055;BME280;44845;51.444;7.460;2023-04-30T10:42:03;100406.34;;;12.29;61.04
59055;BME280;44845;51.444;7.460;2023-04-30T10:44:33;100409.00;;;12.24;60.27
59055;BME280;44845;51.444;7.460;2023-04-30T10:47:02;100403.72;;;12.22;60.37
59055;BME280;44845;51.444;7.460;2023-04-30T10:49:28;100397.53;;;12.30;60.55
59055;BME280;44845;51.444;7.460;2023-04-30T10:51:58;100394.84;;;12.39;60.73
59055;BME280;44845;51.444;7.460;2023-04-30T10:54:26;100397.44;;;12.47;60.90
59055;BME280;44845;51.444;7.460;2023-04-30T10:56:53;100387.88;;;12.38;60.54
59055;BME280;44845;51.444;7.460;2023-04-30T10:59:21;100393.03;;;12.50;60.01
59055;BME280;44845;51.444;7.460;2023-04-30T11:01:57;100398.25;;;12.54;59.08
59055;BME280;44845;51.444;7.460;2023-04-30T11:04:23;100393.03;;;12.50;59.07
59055;BME280;44845;51.444;7.460;2023-04-30T11:09:34;100386.03;;;12.49;59.66
59055;BME280;44845;51.444;7.460;2023-04-30T11:12:04;100389.50;;;12.52;60.77
59055;BME280;44845;51.444;7.460;2023-04-30T11:14:33;100385.94;;;12.59;58.39
59055;BME280;44845;51.444;7.460;2023-04-30T11:16:59;100378.97;;;12.55;58.60
59055;BME280;44845;51.444;7.460;2023-04-30T11:19:26;100390.31;;;12.61;58.95
59055;BME280;44845;51.444;7.460;2023-04-30T11:27:25;100369.19;;;12.72;60.25
59055;BME280;44845;51.444;7.460;2023-04-30T11:29:51;100375.22;;;12.84;58.92
59055;BME280;44845;51.444;7.460;2023-04-30T11:32:21;100375.28;;;12.78;58.71
59055;BME280;44845;51.444;7.460;2023-04-30T11:34:47;100368.34;;;12.70;59.39
59055;BME280;44845;51.444;7.460;2023-04-30T11:37:17;100367.34;;;12.82;59.35
59055;BME280;44845;51.444;7.460;2023-04-30T11:39:44;100361.22;;;12.82;58.97
59055;BME280;44845;51.444;7.460;2023-04-30T11:42:15;100354.16;;;12.84;59.99
59055;BME280;44845;51.444;7.460;2023-04-30T11:44:40;100345.22;;;13.04;57.97
59055;BME280;44845;51.444;7.460;2023-04-30T11:47:06;100350.53;;;12.99;58.11
59055;BME280;44845;51.444;7.460;2023-04-30T11:49:31;100349.78;;;12.84;58.31
59055;BME280;44845;51.444;7.460;2023-04-30T11:51:57;100344.53;;;12.84;58.75
59055;BME280;44845;51.444;7.460;2023-04-30T11:54:23;100345.31;;;12.91;59.11
59055;BME280;44845;51.444;7.460;2023-04-30T11:56:48;100344.25;;;13.11;58.57
59055;BME280;44845;51.444;7.460;2023-04-30T11:59:14;100348.59;;;13.17;59.02
59055;BME280;44845;51.444;7.460;2023-04-30T12:01:41;100352.03;;;13.24;57.61
59055;BME280;44845;51.444;7.460;2023-04-30T12:04:06;100345.16;;;13.09;58.18
59055;BME280;44845;51.444;7.460;2023-04-30T12:06:34;100351.25;;;13.14;57.64
59055;BME280;44845;51.444;7.460;2023-04-30T12:09:00;100341.59;;;13.14;56.31
59055;BME280;44845;51.444;7.460;2023-04-30T12:11:32;100345.97;;;13.17;56.55
59055;BME280;44845;51.444;7.460;2023-04-30T12:14:04;100341.59;;;13.14;57.84
59055;BME280;44845;51.444;7.460;2023-04-30T12:16:45;100341.63;;;13.11;58.80
59055;BME280;44845;51.444;7.460;2023-04-30T12:19:14;100329.19;;;13.23;54.50
59055;BME280;44845;51.444;7.460;2023-04-30T12:21:41;100337.88;;;13.34;54.96
59055;BME280;44845;51.444;7.460;2023-04-30T12:24:10;100338.84;;;13.27;54.23
59055;BME280;44845;51.444;7.460;2023-04-30T12:26:39;100340.66;;;13.18;55.86
59055;BME280;44845;51.444;7.460;2023-04-30T12:29:09;100336.25;;;13.22;53.75
59055;BME280;44845;51.444;7.460;2023-04-30T12:31:36;100328.34;;;13.22;55.43
59055;BME280;44845;51.444;7.460;2023-04-30T12:34:06;100327.41;;;13.25;54.21
59055;BME280;44845;51.444;7.460;2023-04-30T12:36:32;100333.63;;;13.21;53.62
59055;BME280;44845;51.444;7.460;2023-04-30T12:41:29;100325.69;;;13.24;55.52
59055;BME280;44845;51.444;7.460;2023-04-30T12:46:46;100320.28;;;13.36;53.54
59055;BME280;44845;51.444;7.460;2023-04-30T12:49:21;100318.63;;;13.29;55.29
59055;BME280;44845;51.444;7.460;2023-04-30T12:51:47;100310.59;;;13.38;56.18
59055;BME280;44845;51.444;7.460;2023-04-30T12:54:13;100317.47;;;13.50;57.53
59055;BME280;44845;51.444;7.460;2023-04-30T12:56:38;100310.31;;;13.64;55.34
59055;BME280;44845;51.444;7.460;2023-04-30T12:59:13;100311.16;;;13.66;54.31
59055;BME280;44845;51.444;7.460;2023-04-30T13:01:43;100301.44;;;13.71;55.81
59055;BME280;44845;51.444;7.460;2023-04-30T13:04:09;100303.19;;;13.70;54.71
59055;BME280;44845;51.444;7.460;2023-04-30T13:06:35;100310.50;;;13.45;56.17
59055;BME280;44845;51.444;7.460;2023-04-30T13:09:00;100294.63;;;13.49;57.06
59055;BME280;44845;51.444;7.460;2023-04-30T13:11:26;100290.97;;;13.66;53.92
59055;BME280;44845;51.444;7.460;2023-04-30T13:13:51;100300.63;;;13.66;51.80
59055;BME280;44845;51.444;7.460;2023-04-30T13:16:18;100298.97;;;13.58;52.76
59055;BME280;44845;51.444;7.460;2023-04-30T13:18:44;100296.34;;;13.54;53.14
59055;BME280;44845;51.444;7.460;2023-04-30T13:21:10;100294.56;;;13.57;54.05
59055;BME280;44845;51.444;7.460;2023-04-30T13:23:35;100294.50;;;13.64;55.14
59055;BME280;44845;51.444;7.460;2023-04-30T13:26:00;100295.22;;;13.75;53.39